createdAt,value
2023-05-10T00:01:15.467Z,5.2
2023-05-10T00:04:02.999Z,4.7
2023-05-10T00:06:50.603Z,4.5
2023-05-10T00:09:38.831Z,5.2
2023-05-10T00:12:26.300Z,5.2
2023-05-10T00:15:13.721Z,5.1
2023-05-10T00:18:01.226Z,4.8
2023-05-10T00:20:48.838Z,4.4
2023-05-10T00:23:36.536Z,4.5
2023-05-10T00:26:24.005Z,4.4
2023-05-10T00:29:11.371Z,4.7
2023-05-10T00:31:59.266Z,4.6
2023-05-10T00:34:46.538Z,5.3
2023-05-10T00:37:34.658Z,5.3
2023-05-10T00:40:21.899Z,4.9
2023-05-10T00:43:10.342Z,4.8
2023-05-10T00:45:57.792Z,4.9
2023-05-10T00:48:45.361Z,5.2
2023-05-10T00:51:33.033Z,5
2023-05-10T00:54:20.794Z,4.8
2023-05-10T00:57:08.550Z,5.2
2023-05-10T00:59:56.853Z,4.6
2023-05-10T01:02:45.222Z,5.3
2023-05-10T01:05:32.960Z,4.4
2023-05-10T01:08:20.662Z,4.4
2023-05-10T01:11:08.368Z,5
2023-05-10T01:13:56.004Z,4.6
2023-05-10T01:16:44.469Z,4.4
2023-05-10T01:19:34.258Z,4.4
2023-05-10T01:22:23.256Z,4.4
2023-05-10T01:25:29.574Z,4.3
2023-05-10T01:28:34.608Z,4.6
2023-05-10T01:31:45.111Z,4.6
2023-05-10T01:34:52.187Z,4.2
2023-05-10T01:37:46.781Z,5
2023-05-10T01:40:48.030Z,4.9
2023-05-10T01:43:58.552Z,4.4
2023-05-10T01:46:55.822Z,4.8
2023-05-10T01:49:51.249Z,4.4
2023-05-10T01:52:41.658Z,4.4
2023-05-10T01:55:35.780Z,4.5
2023-05-10T01:58:30.252Z,4.5
2023-05-10T02:01:20.945Z,5
2023-05-10T02:04:10.197Z,5.8
2023-05-10T02:07:01.529Z,4.6
2023-05-10T02:09:50.994Z,5.1
2023-05-10T02:12:39.249Z,4.9
2023-05-10T02:15:29.362Z,5
2023-05-10T02:18:18.452Z,4.8
2023-05-10T02:21:07.831Z,4.5
2023-05-10T02:23:56.858Z,4.7
2023-05-10T02:26:45.220Z,4.6
2023-05-10T02:29:35.668Z,4.4
2023-05-10T02:32:24.014Z,5.2
2023-05-10T02:35:15.628Z,4.8
2023-05-10T02:38:03.806Z,4.3
2023-05-10T02:40:52.877Z,5.1
2023-05-10T02:43:42.265Z,4.9
2023-05-10T02:46:30.474Z,5.6
2023-05-10T02:49:18.057Z,5.1
2023-05-10T02:52:05.527Z,5.3
2023-05-10T02:54:54.818Z,4.7
2023-05-10T02:57:46.605Z,4.9
2023-05-10T03:00:41.758Z,4.4
2023-05-10T03:03:29.076Z,4.6
2023-05-10T03:06:16.444Z,4.8
2023-05-10T03:09:03.831Z,4.3
2023-05-10T03:11:53.036Z,4.6
2023-05-10T03:14:49.861Z,5.1
2023-05-10T03:17:47.234Z,5.3
2023-05-10T03:20:47.427Z,4.8
2023-05-10T03:23:36.921Z,5
2023-05-10T03:26:29.047Z,4.9
2023-05-10T03:29:17.872Z,5.1
2023-05-10T03:32:06.380Z,4.7
2023-05-10T03:34:53.942Z,5.5
2023-05-10T03:37:41.404Z,4.7
2023-05-10T03:40:29.107Z,4.8
2023-05-10T03:43:17.556Z,5.7
2023-05-10T03:46:05.334Z,5.1
2023-05-10T03:48:52.724Z,5
2023-05-10T03:51:40.167Z,5.8
2023-05-10T03:54:27.526Z,6.4
2023-05-10T03:57:14.864Z,5.7
2023-05-10T04:00:02.421Z,5
2023-05-10T04:02:52.125Z,5.1
2023-05-10T04:05:39.502Z,5.6
2023-05-10T04:08:26.872Z,5.1
2023-05-10T04:11:14.354Z,5.6
2023-05-10T04:14:01.704Z,4.9
2023-05-10T04:16:49.067Z,4.9
2023-05-10T04:19:36.714Z,5.8
2023-05-10T04:22:24.038Z,4.9
2023-05-10T04:25:11.546Z,5.4
2023-05-10T04:27:59.095Z,5.1
2023-05-10T04:30:46.340Z,5.1
2023-05-10T04:33:33.628Z,4.7
2023-05-10T04:36:21.775Z,4.9
2023-05-10T04:39:08.998Z,5.3
2023-05-10T04:41:56.665Z,4.8
2023-05-10T04:44:43.908Z,5.3
2023-05-10T04:47:31.621Z,5.6
2023-05-10T04:50:19.081Z,4.5
2023-05-10T04:53:06.565Z,5.2
2023-05-10T04:55:53.905Z,5.2
2023-05-10T04:58:41.311Z,5.4
2023-05-10T05:01:28.580Z,5.7
2023-05-10T05:04:15.976Z,5
2023-05-10T05:07:03.246Z,5.5
2023-05-10T05:09:50.557Z,5.4
2023-05-10T05:12:38.766Z,4.5
2023-05-10T05:15:26.082Z,5.2
2023-05-10T05:18:13.682Z,5.7
2023-05-10T05:21:01.431Z,5.1
2023-05-10T05:23:49.802Z,5.3
2023-05-10T05:26:38.285Z,5.4
2023-05-10T05:29:27.575Z,5.6
2023-05-10T05:32:15.512Z,4.6
2023-05-10T05:35:03.515Z,5.6
2023-05-10T05:37:52.119Z,6.2
2023-05-10T05:40:39.827Z,5.4
2023-05-10T05:43:27.409Z,5.3
2023-05-10T05:46:15.237Z,4.6
2023-05-10T05:49:02.744Z,4.9
2023-05-10T05:51:50.391Z,4.5
2023-05-10T05:54:39.136Z,5.4
2023-05-10T05:57:26.552Z,5.3
2023-05-10T06:00:14.181Z,5.5
2023-05-10T06:03:03.059Z,5
2023-05-10T06:05:52.229Z,6.7
2023-05-10T06:08:39.983Z,5.2
2023-05-10T06:11:27.487Z,5.2
2023-05-10T06:14:16.275Z,5.5
2023-05-10T06:17:06.205Z,5.2
2023-05-10T06:19:53.742Z,4.7
2023-05-10T06:22:41.763Z,5.6
2023-05-10T06:25:29.232Z,5.6
2023-05-10T06:28:16.671Z,4.9
2023-05-10T06:31:04.030Z,4.9
2023-05-10T06:33:54.142Z,4.9
2023-05-10T06:36:43.308Z,4.2
2023-05-10T06:39:31.058Z,4.2
2023-05-10T06:42:18.458Z,5.1
2023-05-10T06:45:05.869Z,5.1
2023-05-10T06:47:54.829Z,4.8
2023-05-10T06:50:42.389Z,5
2023-05-10T06:53:30.286Z,4.8
2023-05-10T06:56:18.029Z,4.6
2023-05-10T06:59:07.087Z,4.6
2023-05-10T07:01:55.343Z,5.1
2023-05-10T07:04:43.144Z,5.1
2023-05-10T07:07:34.299Z,4.6
2023-05-10T07:10:22.235Z,4.4
2023-05-10T07:13:10.597Z,5.1
2023-05-10T07:15:58.074Z,4.5
2023-05-10T07:18:47.575Z,5
2023-05-10T07:21:36.111Z,4.4
2023-05-10T07:24:25.980Z,4.6
2023-05-10T07:27:13.357Z,4.5
2023-05-10T07:30:00.774Z,4.5
2023-05-10T07:32:49.408Z,4.9
2023-05-10T07:35:37.439Z,4.5
2023-05-10T07:38:25.193Z,4.3
2023-05-10T07:41:13.036Z,4.9
2023-05-10T07:44:01.191Z,4.7
2023-05-10T07:46:49.298Z,4
2023-05-10T07:49:37.773Z,4.3
2023-05-10T07:52:25.561Z,4.3
2023-05-10T07:55:13.003Z,4.2
2023-05-10T07:58:00.462Z,4.2
2023-05-10T08:00:48.943Z,4.4
2023-05-10T08:03:37.386Z,4.4
2023-05-10T08:06:24.958Z,4.3
2023-05-10T08:09:13.813Z,4.3
2023-05-10T08:12:03.428Z,4.7
2023-05-10T08:14:52.218Z,4.1
2023-05-10T08:17:40.054Z,3.4
2023-05-10T08:20:28.610Z,4.2
2023-05-10T08:23:16.014Z,4.4
2023-05-10T08:26:03.716Z,4.6
2023-05-10T08:28:51.350Z,4.4
2023-05-10T08:31:39.576Z,4.1
2023-05-10T08:34:27.427Z,4.3
2023-05-10T08:37:16.775Z,5.2
2023-05-10T08:40:04.335Z,4.4
2023-05-10T08:42:55.624Z,3.3
2023-05-10T08:45:51.238Z,3.5
2023-05-10T08:48:40.629Z,3.1
2023-05-10T08:51:29.065Z,3.4
2023-05-10T08:54:21.871Z,4
2023-05-10T08:57:10.567Z,3
2023-05-10T08:59:57.915Z,3.6
2023-05-10T09:02:47.312Z,3.5
2023-05-10T09:05:36.927Z,3.5
2023-05-10T09:08:24.582Z,3.3
2023-05-10T09:11:12.652Z,2.9
2023-05-10T09:14:00.292Z,3.3
2023-05-10T09:16:48.372Z,2.9
2023-05-10T09:19:35.908Z,3
2023-05-10T09:22:23.771Z,2.9
2023-05-10T09:25:11.190Z,3.1
2023-05-10T09:28:01.819Z,2.6
2023-05-10T09:30:53.347Z,2.7
2023-05-10T09:33:42.183Z,3.2
2023-05-10T09:36:31.763Z,3.9
2023-05-10T09:39:19.329Z,2.8
2023-05-10T09:42:15.854Z,2.4
2023-05-10T09:45:04.746Z,2.2
2023-05-10T09:47:53.663Z,2.5
2023-05-10T09:50:42.253Z,2.5
2023-05-10T09:53:29.767Z,2.5
2023-05-10T09:56:17.179Z,2.3
2023-05-10T09:59:19.825Z,2.7
2023-05-10T10:02:07.307Z,2.4
2023-05-10T10:04:55.003Z,2.6
2023-05-10T10:07:42.970Z,2.5
2023-05-10T10:10:30.707Z,2.6
2023-05-10T10:13:19.717Z,2.4
2023-05-10T10:16:07.303Z,2.8
2023-05-10T10:18:55.676Z,2.5
2023-05-10T10:21:43.316Z,3
2023-05-10T10:24:30.929Z,2.6
2023-05-10T10:27:23.999Z,2.4
2023-05-10T10:30:22.343Z,2.4
2023-05-10T10:33:28.300Z,2.8
2023-05-10T10:36:33.163Z,2.7
2023-05-10T10:39:28.233Z,2.7
2023-05-10T10:42:16.483Z,2.6
2023-05-10T10:45:30.846Z,2.5
2023-05-10T10:48:18.549Z,2.4
2023-05-10T10:51:07.363Z,2.3
2023-05-10T10:53:54.892Z,3
2023-05-10T10:56:55.521Z,3
2023-05-10T10:59:58.145Z,2.7
2023-05-10T11:03:19.015Z,2.6
2023-05-10T11:06:06.792Z,2.7
2023-05-10T11:08:54.342Z,2.5
2023-05-10T11:11:42.216Z,2.5
2023-05-10T11:14:40.772Z,3
2023-05-10T11:17:28.690Z,2.7
2023-05-10T11:20:17.461Z,2.6
2023-05-10T11:23:08.616Z,2.6
2023-05-10T11:26:01.565Z,2.9
2023-05-10T11:28:49.444Z,2.7
2023-05-10T11:31:38.369Z,2.6
2023-05-10T11:34:30.022Z,2.7
2023-05-10T11:37:18.985Z,3
2023-05-10T11:40:06.567Z,3.2
2023-05-10T11:42:55.387Z,2.9
2023-05-10T11:45:43.062Z,2.7
2023-05-10T11:48:31.528Z,2.5
2023-05-10T11:51:19.269Z,3.5
2023-05-10T11:54:07.732Z,2.9
2023-05-10T11:56:56.694Z,3
2023-05-10T11:59:44.429Z,2.9
2023-05-10T12:02:32.026Z,2.9
2023-05-10T12:05:20.136Z,3.3
2023-05-10T12:08:10.817Z,3
2023-05-10T12:11:00.647Z,2.6
2023-05-10T12:13:53.459Z,3
2023-05-10T12:16:42.204Z,2.9
2023-05-10T12:19:29.884Z,3.2
2023-05-10T12:22:24.267Z,2.9
2023-05-10T12:25:11.896Z,2.9
2023-05-10T12:31:19.262Z,2.5
2023-05-10T12:34:06.848Z,2.7
2023-05-10T12:36:54.352Z,3.3
2023-05-10T12:39:42.362Z,3
2023-05-10T12:42:31.819Z,2.8
2023-05-10T12:45:19.157Z,3
2023-05-10T12:48:06.820Z,3
2023-05-10T12:50:54.874Z,3.1
2023-05-10T12:53:45.105Z,2.9
2023-05-10T12:56:33.603Z,2.9
2023-05-10T12:59:21.242Z,2.7
2023-05-10T13:02:08.781Z,3.3
2023-05-10T13:04:56.405Z,2.8
2023-05-10T13:07:44.076Z,2.9
2023-05-10T13:10:31.749Z,3
2023-05-10T13:13:19.488Z,3.1
2023-05-10T13:16:07.163Z,3.2
2023-05-10T13:18:54.645Z,2.6
2023-05-10T13:21:42.134Z,2.8
2023-05-10T13:24:30.351Z,2.9
2023-05-10T13:27:17.845Z,2.9
2023-05-10T13:30:05.445Z,3.1
2023-05-10T13:32:54.092Z,2.6
2023-05-10T13:35:41.605Z,2.9
2023-05-10T13:38:29.549Z,2.9
2023-05-10T13:41:16.992Z,2.6
2023-05-10T13:44:04.749Z,2.9
2023-05-10T13:46:53.257Z,2.7
2023-05-10T13:49:41.277Z,2.7
2023-05-10T13:52:29.278Z,3.2
2023-05-10T13:55:17.428Z,2.7
2023-05-10T13:58:05.688Z,2.7
2023-05-10T14:00:53.412Z,2.7
2023-05-10T14:03:41.735Z,2.7
2023-05-10T14:06:29.387Z,3
2023-05-10T14:09:16.923Z,2.6
2023-05-10T14:12:04.394Z,3
2023-05-10T14:14:52.146Z,3.2
2023-05-10T14:17:40.432Z,3.1
2023-05-10T14:20:27.998Z,2.4
2023-05-10T14:23:15.636Z,3.1
2023-05-10T14:26:05.033Z,3.1
2023-05-10T14:28:52.910Z,3.2
2023-05-10T14:31:40.749Z,2.7
2023-05-10T14:34:28.216Z,2.6
2023-05-10T14:37:15.625Z,3
2023-05-10T14:40:03.370Z,3.1
2023-05-10T14:42:54.941Z,2.8
2023-05-10T14:45:42.593Z,3
2023-05-10T14:48:30.876Z,2.9
2023-05-10T14:51:18.263Z,2.9
2023-05-10T14:54:07.472Z,3.1
2023-05-10T14:56:55.097Z,3.3
2023-05-10T14:59:42.673Z,3.1
2023-05-10T15:02:30.635Z,3
2023-05-10T15:05:19.082Z,3.5
2023-05-10T15:08:07.405Z,3.2
2023-05-10T15:10:55.130Z,2.7
2023-05-10T15:13:42.666Z,2.8
2023-05-10T15:16:31.259Z,3.4
2023-05-10T15:19:20.984Z,2.9
2023-05-10T15:22:08.434Z,3
2023-05-10T15:24:56.122Z,3.3
2023-05-10T15:27:43.825Z,3.1
2023-05-10T15:30:31.602Z,2.9
2023-05-10T15:33:19.064Z,3.8
2023-05-10T15:36:06.613Z,3.5
2023-05-10T15:38:54.336Z,3.5
2023-05-10T15:41:41.850Z,2.9
2023-05-10T15:44:29.241Z,3.1
2023-05-10T15:47:16.631Z,3.2
2023-05-10T15:50:04.450Z,3.2
2023-05-10T15:52:53.270Z,3.4
2023-05-10T15:55:41.255Z,3
2023-05-10T15:58:29.117Z,2.9
2023-05-10T16:01:16.989Z,3.4
2023-05-10T16:04:04.516Z,3.1
2023-05-10T16:06:52.504Z,3.2
2023-05-10T16:09:40.579Z,3.3
2023-05-10T16:12:27.987Z,3.3
2023-05-10T16:15:16.122Z,3.5
2023-05-10T16:18:03.988Z,3.1
2023-05-10T16:20:52.239Z,3
2023-05-10T16:23:40.343Z,2.9
2023-05-10T16:26:31.087Z,3.1
2023-05-10T16:29:25.313Z,3.3
2023-05-10T16:32:12.903Z,3.2
2023-05-10T16:35:00.297Z,3.3
2023-05-10T16:37:48.378Z,3.2
2023-05-10T16:40:36.062Z,3.3
2023-05-10T16:43:25.824Z,3.6
2023-05-10T16:46:13.991Z,3.6
2023-05-10T16:49:01.875Z,3.1
2023-05-10T16:51:49.439Z,3
2023-05-10T16:54:36.910Z,3.5
2023-05-10T16:57:24.748Z,3.4
2023-05-10T17:00:12.564Z,2.9
2023-05-10T17:03:01.238Z,3.7
2023-05-10T17:05:49.081Z,3
2023-05-10T17:08:36.645Z,3.1
2023-05-10T17:11:24.298Z,3.4
2023-05-10T17:14:11.981Z,3.3
2023-05-10T17:16:59.436Z,3.4
2023-05-10T17:19:47.011Z,3.6
2023-05-10T17:22:34.770Z,3
2023-05-10T17:25:22.547Z,2.9
2023-05-10T17:28:09.887Z,3.4
2023-05-10T17:30:57.367Z,3.7
2023-05-10T17:33:45.064Z,3.2
2023-05-10T17:36:32.462Z,3.2
2023-05-10T17:39:20.062Z,3.2
2023-05-10T17:42:07.520Z,3
2023-05-10T17:44:55.012Z,3.3
2023-05-10T17:47:42.509Z,3.1
2023-05-10T17:50:30.279Z,3.8
2023-05-10T17:53:17.898Z,3.5
2023-05-10T17:56:05.416Z,3.3
2023-05-10T17:58:54.175Z,3.7
2023-05-10T18:01:42.053Z,3.3
2023-05-10T18:04:29.503Z,2.9
2023-05-10T18:07:17.505Z,3.5
2023-05-10T18:10:06.654Z,2.9
2023-05-10T18:12:55.535Z,3.9
2023-05-10T18:15:43.217Z,3.8
2023-05-10T18:18:30.866Z,3.6
2023-05-10T18:21:18.857Z,4.3
2023-05-10T18:24:06.628Z,3.7
2023-05-10T18:26:54.148Z,3.2
2023-05-10T18:29:41.635Z,3.3
2023-05-10T18:32:29.230Z,3.4
2023-05-10T18:35:16.673Z,3.4
2023-05-10T18:38:04.186Z,3.5
2023-05-10T18:40:52.864Z,3.4
2023-05-10T18:43:42.409Z,3.5
2023-05-10T18:46:30.294Z,3.8
2023-05-10T18:49:18.313Z,3.9
2023-05-10T18:52:06.596Z,4.1
2023-05-10T18:54:54.177Z,4.3
2023-05-10T18:57:42.088Z,4.1
2023-05-10T19:00:29.883Z,4.5
2023-05-10T19:03:17.640Z,4.7
2023-05-10T19:06:05.700Z,4.4
2023-05-10T19:08:53.663Z,3.7
2023-05-10T19:11:41.166Z,4.7
2023-05-10T19:14:28.722Z,4.8
2023-05-10T19:17:17.002Z,4.5
2023-05-10T19:20:05.476Z,5.3
2023-05-10T19:23:08.640Z,5.1
2023-05-10T19:25:58.614Z,4.9
2023-05-10T19:28:46.520Z,5.9
2023-05-10T19:31:36.191Z,6.9
2023-05-10T19:34:23.812Z,6.1
2023-05-10T19:37:11.364Z,4.7
2023-05-10T19:39:58.885Z,4.8
2023-05-10T19:42:46.432Z,5.5
2023-05-10T19:45:34.998Z,4.6
2023-05-10T19:48:22.297Z,5.6
2023-05-10T19:51:10.356Z,4.5
2023-05-10T19:53:58.000Z,4.3
2023-05-10T19:56:45.444Z,5.1
2023-05-10T19:59:32.964Z,4.9
2023-05-10T20:02:20.968Z,4.9
2023-05-10T20:05:08.711Z,5.1
2023-05-10T20:07:56.321Z,4.8
2023-05-10T20:10:43.778Z,5.2
2023-05-10T20:13:31.316Z,5
2023-05-10T20:16:18.958Z,4.6
2023-05-10T20:19:06.486Z,4.9
2023-05-10T20:21:53.962Z,4.8
2023-05-10T20:24:43.278Z,5.1
2023-05-10T20:27:31.271Z,4.8
2023-05-10T20:30:18.976Z,5.2
2023-05-10T20:33:06.898Z,4.6
2023-05-10T20:35:55.338Z,4.6
2023-05-10T20:38:43.281Z,4.6
2023-05-10T20:41:30.675Z,4.9
2023-05-10T20:44:18.141Z,4.7
2023-05-10T20:47:05.534Z,4.7
2023-05-10T20:49:53.610Z,4.9
2023-05-10T20:52:41.060Z,5.1
2023-05-10T20:55:28.508Z,4.9
2023-05-10T20:58:15.954Z,5.4
2023-05-10T21:01:03.352Z,4.7
2023-05-10T21:03:51.335Z,4.4
2023-05-10T21:06:39.746Z,4.8
2023-05-10T21:09:27.805Z,4.5
2023-05-10T21:12:15.357Z,4.3
2023-05-10T21:15:03.045Z,4.9
2023-05-10T21:17:51.497Z,4.4
2023-05-10T21:20:40.263Z,4.1
2023-05-10T21:23:27.568Z,3.8
2023-05-10T21:26:15.065Z,4.6
2023-05-10T21:29:03.030Z,4.3
2023-05-10T21:31:50.950Z,4.4
2023-05-10T21:34:39.230Z,4.6
2023-05-10T21:37:26.597Z,4.3
2023-05-10T21:40:13.992Z,4.4
2023-05-10T21:43:01.535Z,4.2
2023-05-10T21:45:49.039Z,4.7
2023-05-10T21:48:36.579Z,4.7
2023-05-10T21:51:23.958Z,5.3
2023-05-10T21:54:11.464Z,4.9
2023-05-10T21:56:59.263Z,4.5
2023-05-10T21:59:46.630Z,5
2023-05-10T22:02:34.153Z,4.7
2023-05-10T22:05:22.133Z,4.5
2023-05-10T22:08:09.623Z,4.9
2023-05-10T22:10:57.105Z,5.3
2023-05-10T22:13:44.475Z,4.8
2023-05-10T22:16:31.904Z,5.4
2023-05-10T22:19:19.312Z,5.2
2023-05-10T22:22:06.630Z,5
2023-05-10T22:24:54.192Z,5.2
2023-05-10T22:27:41.579Z,4.7
2023-05-10T22:30:31.490Z,5
2023-05-10T22:33:20.234Z,5.3
2023-05-10T22:36:07.627Z,5.5
2023-05-10T22:38:55.069Z,4.8
2023-05-10T22:41:42.604Z,4.8
2023-05-10T22:44:30.138Z,4.9
2023-05-10T22:47:17.551Z,4.8
2023-05-10T22:50:05.112Z,5.1
2023-05-10T22:52:53.717Z,5.2
2023-05-10T22:55:41.047Z,4.5
2023-05-10T22:58:28.499Z,4.6
2023-05-10T23:01:17.344Z,5.2
2023-05-10T23:04:04.845Z,4.5
2023-05-10T23:06:53.303Z,4.8
2023-05-10T23:09:41.010Z,4.8
2023-05-10T23:12:28.638Z,4.6
2023-05-10T23:15:16.097Z,5.2
2023-05-10T23:18:03.638Z,5
2023-05-10T23:20:51.395Z,5
2023-05-10T23:23:39.605Z,4.7
2023-05-10T23:26:27.036Z,4.6
2023-05-10T23:29:14.458Z,4.2
2023-05-10T23:32:02.033Z,5
2023-05-10T23:34:50.064Z,4
2023-05-10T23:37:37.863Z,4.1
2023-05-10T23:40:27.063Z,4.7
2023-05-10T23:43:14.382Z,4.3
2023-05-10T23:46:04.370Z,5.4
2023-05-10T23:48:51.984Z,4.9
2023-05-10T23:51:40.416Z,4.1
2023-05-10T23:54:27.716Z,4.6
2023-05-10T23:57:15.353Z,4.7
